Meteorología y climatología de Navarra
Datos de la estación - Meteo Navarra

Estación de Sartaguda GN

Altitud 310 m.


Datos desde el 03/12/2019 hasta el 04/12/2019 en horario solar
Los datos son PROVISIONALES

Anterior Página 1 de 1 Siguiente Descargar: Formato para Excel 2000 o superior   Formato csv   Formato para OpenOffice Calc
Fecha Temperatura Humedad relativa Radiación global Insolación Precipitación Vel. viento 10 m Vel. viento 10 m Dir. viento 10 m
ºC % W/m² s l/m² m/s km/h º
03/12/2019 0:00 6.1 74 0.0 0 0.0 3.8 13.6 321
03/12/2019 0:10 6.1 74 0.0 0 0.0 3.3 11.8 316
03/12/2019 0:20 6.0 76 0.0 0 0.0 3.1 11.3 310
03/12/2019 0:30 5.9 77 0.0 0 0.0 2.9 10.6 311
03/12/2019 0:40 5.9 78 0.0 0 0.0 2.8 10.0 316
03/12/2019 0:50 5.9 78 0.0 0 0.0 2.5 9.0 316
03/12/2019 1:00 5.8 78 0.0 0 0.0 2.5 9.1 319
03/12/2019 1:10 5.7 78 0.0 0 0.0 2.5 9.0 319
03/12/2019 1:20 5.7 79 0.0 0 0.0 2.3 8.4 324
03/12/2019 1:30 5.7 80 0.0 0 0.0 2.9 10.5 325
03/12/2019 1:40 5.7 80 0.0 0 0.0 2.6 9.5 315
03/12/2019 1:50 5.7 80 0.0 0 0.0 2.1 7.7 302
03/12/2019 2:00 5.7 80 0.0 0 0.0 2.4 8.5 311
03/12/2019 2:10 5.7 80 0.0 0 0.0 1.9 6.8 313
03/12/2019 2:20 5.6 80 0.0 0 0.0 2.0 7.2 313
03/12/2019 2:30 5.7 80 0.0 0 0.0 2.1 7.5 297
03/12/2019 2:40 5.6 79 0.0 0 0.0 2.5 9.1 293
03/12/2019 2:50 5.6 79 0.0 0 0.0 2.6 9.3 293
03/12/2019 3:00 5.7 79 0.0 0 0.0 3.3 12.0 294
03/12/2019 3:10 5.7 78 0.0 0 0.0 3.5 12.5 294
03/12/2019 3:20 5.7 78 0.0 0 0.0 3.1 11.0 296
03/12/2019 3:30 5.7 79 0.0 0 0.0 3.3 11.9 301
03/12/2019 3:40 5.7 79 0.0 0 0.0 2.8 9.9 299
03/12/2019 3:50 5.7 79 0.0 0 0.0 2.7 9.8 293
03/12/2019 4:00 5.7 79 0.0 0 0.0 2.3 8.4 301
03/12/2019 4:10 5.6 79 0.0 0 0.0 2.1 7.6 292
03/12/2019 4:20 5.7 79 0.0 0 0.0 2.1 7.6 305
03/12/2019 4:30 5.7 79 0.0 0 0.0 2.3 8.3 302
03/12/2019 4:40 5.6 79 0.0 0 0.0 2.6 9.3 315
03/12/2019 4:50 5.5 78 0.0 0 0.0 3.6 13.1 314
03/12/2019 5:00 5.5 79 0.0 0 0.0 3.0 10.9 309
03/12/2019 5:10 5.6 79 0.0 0 0.0 2.6 9.4 301
03/12/2019 5:20 5.5 80 0.0 0 0.0 2.9 10.3 298
03/12/2019 5:30 5.5 80 0.0 0 0.0 3.0 10.7 301
03/12/2019 5:40 5.5 80 0.0 0 0.0 3.1 11.2 305
03/12/2019 5:50 5.4 81 0.0 0 0.0 3.1 11.1 306
03/12/2019 6:00 5.3 82 0.0 0 0.0 3.3 11.9 311
03/12/2019 6:10 5.3 82 0.0 0 0.0 3.1 11.2 299
03/12/2019 6:20 5.2 82 0.0 0 0.0 3.2 11.7 303
03/12/2019 6:30 5.2 82 0.0 0 0.0 2.9 10.3 305
03/12/2019 6:40 5.2 83 0.0 0 0.0 2.7 9.6 292
03/12/2019 6:50 5.2 82 0.0 0 0.0 2.7 9.6 288
03/12/2019 7:00 5.2 81 0.0 0 0.0 3.0 10.8 292
03/12/2019 7:10 5.2 80 0.0 0 0.0 3.1 11.2 288
03/12/2019 7:20 5.3 79 0.0 0 0.0 2.9 10.5 290
03/12/2019 7:30 5.2 80 0.0 0 0.0 2.8 10.2 291
03/12/2019 7:40 5.1 80 15.0 0 0.0 2.7 9.8 292
03/12/2019 7:50 5.1 80 25.2 0 0.0 3.0 10.7 284
03/12/2019 8:00 5.0 81 34.8 0 0.0 2.5 8.8 291
03/12/2019 8:10 4.9 81 46.9 0 0.0 2.4 8.7 288
03/12/2019 8:20 4.8 81 61.7 0 0.0 1.9 6.8 295
03/12/2019 8:30 4.8 81 76.6 0 0.0 2.2 7.8 300
03/12/2019 8:40 4.8 81 103.4 588 0.0 2.2 7.9 307
03/12/2019 8:50 5.1 81 158.8 600 0.0 2.0 7.3 303
03/12/2019 9:00 5.4 79 149.4 600 0.0 2.4 8.5 308
03/12/2019 9:10 5.6 78 122.5 28 0.0 2.5 9.0 311
03/12/2019 9:20 5.6 78 143.2 286 0.0 2.6 9.5 311
03/12/2019 9:30 5.9 77 157.1 464 0.0 2.7 9.7 313
03/12/2019 9:40 6.1 76 168.1 426 0.0 3.1 11.2 308
03/12/2019 9:50 6.2 75 194.7 600 0.0 3.0 10.8 310
03/12/2019 10:00 6.4 73 191.5 464 0.0 2.9 10.5 307
03/12/2019 10:10 6.7 71 253.8 600 0.0 3.5 12.5 318
03/12/2019 10:20 7.1 70 335.9 600 0.0 3.5 12.5 318
03/12/2019 10:30 7.1 67 260.5 492 0.0 3.4 12.1 320
03/12/2019 10:40 7.3 67 418.0 600 0.0 3.1 11.2 305
03/12/2019 10:50 7.6 67 486.5 600 0.0 3.3 11.8 312
03/12/2019 11:00 8.1 66 409.3 402 0.0 3.2 11.6 294
03/12/2019 11:10 7.9 66 138.3 0 0.0 3.0 10.8 314
03/12/2019 11:20 7.6 68 160.8 0 0.0 2.9 10.5 318
03/12/2019 11:30 7.4 66 147.7 0 0.0 3.1 11.3 325
03/12/2019 11:40 7.3 64 148.5 0 0.0 3.3 11.8 334
03/12/2019 11:50 7.3 64 176.3 0 0.0 3.1 11.1 332
03/12/2019 12:00 7.4 63 203.8 0 0.0 2.9 10.5 329
03/12/2019 12:10 7.5 63 185.8 0 0.0 2.5 9.0 321
03/12/2019 12:20 7.6 62 185.6 0 0.0 2.9 10.5 337
03/12/2019 12:30 7.7 61 194.3 86 0.0 2.4 8.8 343
03/12/2019 12:40 7.8 63 185.6 0 0.0 3.0 10.9 352
03/12/2019 12:50 7.8 63 205.4 0 0.0 3.1 11.0 335
03/12/2019 13:00 7.9 62 228.5 432 0.0 2.6 9.4 353
03/12/2019 13:10 8.0 61 246.7 600 0.0 2.5 9.1 3
03/12/2019 13:20 8.0 61 295.0 552 0.0 2.0 7.2 335
03/12/2019 13:30 8.3 60 228.8 244 0.0 1.8 6.5 340
03/12/2019 13:40 8.2 60 259.3 464 0.0 2.1 7.4 302
03/12/2019 13:50 8.4 60 378.6 600 0.0 2.2 7.8 306
03/12/2019 14:00 8.8 58 373.8 600 0.0 2.1 7.4 303
03/12/2019 14:10 8.8 58 339.4 600 0.0 1.8 6.3 326
03/12/2019 14:20 8.9 57 312.5 600 0.0 1.6 5.7 312
03/12/2019 14:30 9.0 57 229.0 470 0.0 1.9 6.8 320
03/12/2019 14:40 8.5 59 175.0 320 0.0 1.6 5.8 304
03/12/2019 14:50 8.8 58 243.8 600 0.0 1.7 6.2 323
03/12/2019 15:00 8.7 57 216.0 600 0.0 1.8 6.3 309
03/12/2019 15:10 8.8 58 191.6 600 0.0 1.7 6.0 290
03/12/2019 15:20 8.7 57 146.0 496 0.0 1.4 5.1 302
03/12/2019 15:30 8.4 58 88.5 236 0.0 1.6 5.6 304
03/12/2019 15:40 8.1 60 80.1 294 0.0 1.2 4.4 321
03/12/2019 15:50 8.0 61 53.7 0 0.0 1.6 5.7 336
03/12/2019 16:00 7.8 61 37.0 0 0.0 1.3 4.8 328
03/12/2019 16:10 7.8 63 29.5 0 0.0 0.8 2.9 315
03/12/2019 16:20 7.6 63 20.1 0 0.0 0.7 2.4 286
03/12/2019 16:30 7.6 64 3.1 0 0.0 0.3 1.0 277
03/12/2019 16:40 7.5 67 0.0 0 0.0 0.4 1.5 276
03/12/2019 16:50 7.4 67 0.0 0 0.0 0.2 0.8 312
03/12/2019 17:00 7.2 68 0.0 0 0.0 0.6 2.1 72
03/12/2019 17:10 7.1 69 0.0 0 0.0 0.0 0.1 281
03/12/2019 17:20 6.8 73 0.0 0 0.0 0.1 0.4 282
03/12/2019 17:30 6.3 73 0.0 0 0.0 0.7 2.6 255
03/12/2019 17:40 5.9 75 0.0 0 0.0 0.5 1.9 244
03/12/2019 17:50 5.6 77 0.0 0 0.0 0.5 1.7 325
03/12/2019 18:00 5.2 78 0.0 0 0.0 1.0 3.6 22
03/12/2019 18:10 4.7 80 0.0 0 0.0 0.6 2.3 351
03/12/2019 18:20 4.2 81 0.0 0 0.0 0.5 1.9 66
03/12/2019 18:30 3.7 83 0.0 0 0.0 0.4 1.5 248
03/12/2019 18:40 3.5 84 0.0 0 0.0 0.4 1.5 232
03/12/2019 18:50 3.4 85 0.0 0 0.0 0.1 0.4 303
03/12/2019 19:00 3.1 85 0.0 0 0.0 0.8 2.8 340
03/12/2019 19:10 2.7 87 0.0 0 0.0 1.7 5.9 358
03/12/2019 19:20 2.6 87 0.0 0 0.0 1.6 5.7 273
03/12/2019 19:30 2.6 88 0.0 0 0.0 1.2 4.2 247
03/12/2019 19:40 2.3 88 0.0 0 0.0 0.8 2.8 256
03/12/2019 19:50 2.2 88 0.0 0 0.0 0.8 2.8 328
03/12/2019 20:00 2.2 88 0.0 0 0.0 1.3 4.7 333
03/12/2019 20:10 2.3 89 0.0 0 0.0 2.0 7.3 278
03/12/2019 20:20 2.0 88 0.0 0 0.0 1.1 3.9 276
03/12/2019 20:30 1.7 90 0.0 0 0.0 0.5 1.8 270
03/12/2019 20:40 1.6 89 0.0 0 0.0 0.8 2.8 295
03/12/2019 20:50 1.5 88 0.0 0 0.0 0.6 2.3 350
03/12/2019 21:00 1.1 88 0.0 0 0.0 0.7 2.5 32
03/12/2019 21:10 0.9 90 0.0 0 0.0 0.8 3.0 75
03/12/2019 21:20 0.9 91 0.0 0 0.0 0.6 2.2 277
03/12/2019 21:30 0.7 91 0.0 0 0.0 0.1 0.4 277
03/12/2019 21:40 0.6 91 0.0 0 0.0 0.4 1.5 155
03/12/2019 21:50 0.6 92 0.0 0 0.0 0.1 0.3 200
03/12/2019 22:00 0.6 92 0.0 0 0.0 0.6 2.1 305
03/12/2019 22:10 0.7 92 0.0 0 0.0 0.7 2.5 334
03/12/2019 22:20 0.4 93 0.0 0 0.0 0.4 1.4 285
03/12/2019 22:30 0.4 93 0.0 0 0.0 0.4 1.5 321
03/12/2019 22:40 0.4 92 0.0 0 0.0 0.5 1.6 309
03/12/2019 22:50 0.3 93 0.0 0 0.0 0.9 3.1 286
03/12/2019 23:00 0.5 94 0.0 0 0.0 1.2 4.3 284
03/12/2019 23:10 0.5 93 0.0 0 0.0 1.0 3.6 275
03/12/2019 23:20 0.4 93 0.0 0 0.0 0.5 1.6 304
03/12/2019 23:30 0.4 93 0.0 0 0.0 0.1 0.3 293
03/12/2019 23:40 0.2 93 0.0 0 0.0 0.4 1.5 342
03/12/2019 23:50 0.0 92 0.0 0 0.0 0.4 1.3 32
Anterior Página 1 de 1 Siguiente

NOTA: Tipo de datos según el color:
   - Valores diarios o 10 minutos correctos
   - Valores diarios calculados a partir de un número de datos 10 minutos menor que 144 y mayor que 120, o de un número de datos semihorarios menor que 48 y mayor que 40 (caso de las estaciones de Riegos de Navarra y del MARM)
   - Valores diez minutos estimados


Contacto        Enlaces        Aviso legal